Mountain Fork River (Oklahoma), Smithville (07338750)

StateOklahomaCurrentGood (560 cfs)
RiverMountain Fork RiverFlood - The river is flooding. Obstacles can be treacherous or deadly. The river should be avoided at this stage for casual trips and definitely for the inexperienced. Trips should be attempted only with protective gear and equipment.Flood(none)
Updated2019-10-14 2:30 (1 hour ago)High - The river is high and potentially dangerous, especially for the young and / or inexperienced. Normal stream obstacles are sometimes difficult to navigate. Extended distances can be attempted, but canoe travel may not be advisable.High(none)
Discharge560 cfs (median: 32 cfs)Good - Conditions are ideal for a canoe or kayak. Boats typically will drag on fewer than one-quarter of riffles, if at all, and portages are unnecessary or rare. Normal float lengths can be attempted without a problem.Good60
Height8.34 feetLow - River is low but can still be floated. Some riffles are okay but most come with significant dragging and might need a portage. Float lengths should be reduced to accommodate low flow, dragging, and portages.Low(none)
TrendFalling (falling over 24 hours)Poor - River is too low to float comfortably. Most or all riffles will drag or must be portaged and some obstacles (such as slick shelf rock) cause undue problems. Avoid the river at this stage for casual paddling trips.Poor10
USGSExternal icon USGS Site for Smithville (07338750)LocationExternal icon Google Maps

Trending Data

Plot Image
ObservationHeightDischargeMaximum
Discharge
Minimum
Discharge
Mean
Discharge
P05P10P20P25P50
(Median)
P75P80P90P95
2019-10-14 02:30 8.34 560 2830 (2010) 1 (2007) 314 1 2 4 6 32 157 422 1310 2510
2019-10-14 01:30 8.36 572 2830 (2010) 1 (2007) 314 1 2 4 6 32 157 422 1310 2510
2019-10-14 00:30 8.38 585 2830 (2010) 1 (2007) 314 1 2 4 6 32 157 422 1310 2510
2019-10-13 23:30 8.39 592 2670 (2015) 1 (2016) 381 1 2 4 6 27 173 282 2030 2620
2019-10-13 22:30 8.41 605 2670 (2015) 1 (2016) 381 1 2 4 6 27 173 282 2030 2620
2019-10-13 21:30 8.43 618 2670 (2015) 1 (2016) 381 1 2 4 6 27 173 282 2030 2620
2019-10-13 20:30 8.45 632 2670 (2015) 1 (2016) 381 1 2 4 6 27 173 282 2030 2620
2019-10-13 19:30 8.47 646 2670 (2015) 1 (2016) 381 1 2 4 6 27 173 282 2030 2620
2019-10-13 18:30 8.49 660 2670 (2015) 1 (2016) 381 1 2 4 6 27 173 282 2030 2620
2019-10-13 17:30 8.51 674 2670 (2015) 1 (2016) 381 1 2 4 6 27 173 282 2030 2620
2019-10-13 16:30 8.54 696 2670 (2015) 1 (2016) 381 1 2 4 6 27 173 282 2030 2620
2019-10-13 15:30 8.55 703 2670 (2015) 1 (2016) 381 1 2 4 6 27 173 282 2030 2620
2019-10-13 14:30 8.57 718 2670 (2015) 1 (2016) 381 1 2 4 6 27 173 282 2030 2620
2019-10-13 13:30 8.60 741 2670 (2015) 1 (2016) 381 1 2 4 6 27 173 282 2030 2620
2019-10-13 12:30 8.62 756 2670 (2015) 1 (2016) 381 1 2 4 6 27 173 282 2030 2620
2019-10-13 11:30 8.64 772 2670 (2015) 1 (2016) 381 1 2 4 6 27 173 282 2030 2620
2019-10-13 10:30 8.66 788 2670 (2015) 1 (2016) 381 1 2 4 6 27 173 282 2030 2620
2019-10-13 09:30 8.69 812 2670 (2015) 1 (2016) 381 1 2 4 6 27 173 282 2030 2620
2019-10-13 08:30 8.72 836 2670 (2015) 1 (2016) 381 1 2 4 6 27 173 282 2030 2620
2019-10-13 07:30 8.74 853 2670 (2015) 1 (2016) 381 1 2 4 6 27 173 282 2030 2620
2019-10-13 06:30 8.77 879 2670 (2015) 1 (2016) 381 1 2 4 6 27 173 282 2030 2620
2019-10-13 05:30 8.80 905 2670 (2015) 1 (2016) 381 1 2 4 6 27 173 282 2030 2620
2019-10-13 04:30 8.83 931 2670 (2015) 1 (2016) 381 1 2 4 6 27 173 282 2030 2620
2019-10-13 03:30 8.85 949 2670 (2015) 1 (2016) 381 1 2 4 6 27 173 282 2030 2620
2019-10-13 02:30 8.88 977 2670 (2015) 1 (2016) 381 1 2 4 6 27 173 282 2030 2620
2019-10-13 01:30 8.91 1010 2670 (2015) 1 (2016) 381 1 2 4 6 27 173 282 2030 2620
2019-10-13 00:30 8.95 1040 2670 (2015) 1 (2016) 381 1 2 4 6 27 173 282 2030 2620
2019-10-12 23:30 8.98 1070 1410 (2010) 1 (2007) 171 1 1 5 8 31 181 236 578 1300
2019-10-12 22:30 9.01 1100 1410 (2010) 1 (2007) 171 1 1 5 8 31 181 236 578 1300
2019-10-12 21:30 9.05 1140 1410 (2010) 1 (2007) 171 1 1 5 8 31 181 236 578 1300
2019-10-12 20:30 9.08 1170 1410 (2010) 1 (2007) 171 1 1 5 8 31 181 236 578 1300
2019-10-12 19:30 9.12 1210 1410 (2010) 1 (2007) 171 1 1 5 8 31 181 236 578 1300
2019-10-12 18:30 9.16 1250 1410 (2010) 1 (2007) 171 1 1 5 8 31 181 236 578 1300
2019-10-12 17:30 9.20 1290 1410 (2010) 1 (2007) 171 1 1 5 8 31 181 236 578 1300
2019-10-12 16:30 9.23 1320 1410 (2010) 1 (2007) 171 1 1 5 8 31 181 236 578 1300
2019-10-12 15:30 9.24 1330 1410 (2010) 1 (2007) 171 1 1 5 8 31 181 236 578 1300
2019-10-12 14:30 9.33 1430 1410 (2010) 1 (2007) 171 1 1 5 8 31 181 236 578 1300
2019-10-12 13:30 9.38 1480 1410 (2010) 1 (2007) 171 1 1 5 8 31 181 236 578 1300
2019-10-12 12:30 9.42 1530 1410 (2010) 1 (2007) 171 1 1 5 8 31 181 236 578 1300
2019-10-12 11:30 9.47 1590 1410 (2010) 1 (2007) 171 1 1 5 8 31 181 236 578 1300
2019-10-12 10:30 9.53 1660 1410 (2010) 1 (2007) 171 1 1 5 8 31 181 236 578 1300
2019-10-12 09:30 9.59 1730 1410 (2010) 1 (2007) 171 1 1 5 8 31 181 236 578 1300
2019-10-12 08:30 9.65 1800 1410 (2010) 1 (2007) 171 1 1 5 8 31 181 236 578 1300
2019-10-12 07:30 9.71 1880 1410 (2010) 1 (2007) 171 1 1 5 8 31 181 236 578 1300
2019-10-12 06:30 9.79 1990 1410 (2010) 1 (2007) 171 1 1 5 8 31 181 236 578 1300
2019-10-12 05:30 9.83 2040 1410 (2010) 1 (2007) 171 1 1 5 8 31 181 236 578 1300
2019-10-12 04:30 9.93 2180 1410 (2010) 1 (2007) 171 1 1 5 8 31 181 236 578 1300
2019-10-12 03:30 10.04 2340 1410 (2010) 1 (2007) 171 1 1 5 8 31 181 236 578 1300
2019-10-12 02:30 10.13 2470 1410 (2010) 1 (2007) 171 1 1 5 8 31 181 236 578 1300
2019-10-12 01:30 10.22 2600 1410 (2010) 1 (2007) 171 1 1 5 8 31 181 236 578 1300
2019-10-12 00:30 10.31 2740 1410 (2010) 1 (2007) 171 1 1 5 8 31 181 236 578 1300
2019-10-11 23:30 10.41 2900 1770 (2010) 1 (2007) 198 1 2 5 10 34 245 304 657 1490
2019-10-11 22:30 10.53 3100 1770 (2010) 1 (2007) 198 1 2 5 10 34 245 304 657 1490
2019-10-11 21:30 10.64 3310 1770 (2010) 1 (2007) 198 1 2 5 10 34 245 304 657 1490
2019-10-11 20:30 10.83 3660 1770 (2010) 1 (2007) 198 1 2 5 10 34 245 304 657 1490
2019-10-11 19:30 10.90 3800 1770 (2010) 1 (2007) 198 1 2 5 10 34 245 304 657 1490
2019-10-11 18:30 11.00 3990 1770 (2010) 1 (2007) 198 1 2 5 10 34 245 304 657 1490
2019-10-11 17:30 11.12 4240 1770 (2010) 1 (2007) 198 1 2 5 10 34 245 304 657 1490
2019-10-11 16:30 11.22 4450 1770 (2010) 1 (2007) 198 1 2 5 10 34 245 304 657 1490
2019-10-11 15:30 11.34 4690 1770 (2010) 1 (2007) 198 1 2 5 10 34 245 304 657 1490
2019-10-11 14:30 11.44 4920 1770 (2010) 1 (2007) 198 1 2 5 10 34 245 304 657 1490
2019-10-11 13:30 11.61 5290 1770 (2010) 1 (2007) 198 1 2 5 10 34 245 304 657 1490
2019-10-11 12:30 11.79 5680 1770 (2010) 1 (2007) 198 1 2 5 10 34 245 304 657 1490
2019-10-11 11:30 12.07 6310 1770 (2010) 1 (2007) 198 1 2 5 10 34 245 304 657 1490
2019-10-11 10:30 12.39 7020 1770 (2010) 1 (2007) 198 1 2 5 10 34 245 304 657 1490
2019-10-11 09:30 12.72 7740 1770 (2010) 1 (2007) 198 1 2 5 10 34 245 304 657 1490
2019-10-11 08:30 13.28 9030 1770 (2010) 1 (2007) 198 1 2 5 10 34 245 304 657 1490
2019-10-11 07:30 13.49 9530 1770 (2010) 1 (2007) 198 1 2 5 10 34 245 304 657 1490
2019-10-11 06:30 13.24 8930 1770 (2010) 1 (2007) 198 1 2 5 10 34 245 304 657 1490
2019-10-11 05:30 12.09 6350 1770 (2010) 1 (2007) 198 1 2 5 10 34 245 304 657 1490
2019-10-11 04:30 11.63 5330 1770 (2010) 1 (2007) 198 1 2 5 10 34 245 304 657 1490
2019-10-11 03:30 11.82 5750 1770 (2010) 1 (2007) 198 1 2 5 10 34 245 304 657 1490
2019-10-11 02:30 11.55 5170 1770 (2010) 1 (2007) 198 1 2 5 10 34 245 304 657 1490
2019-10-11 01:30 11.67 5410 1770 (2010) 1 (2007) 198 1 2 5 10 34 245 304 657 1490
2019-10-11 00:30 12.38 7000 1770 (2010) 1 (2007) 198 1 2 5 10 34 245 304 657 1490
2019-10-10 23:30 11.69 5460 4100 (2010) 1 (2012) 324 1 2 5 10 21 206 302 989 3260
2019-10-10 22:30 9.33 1430 4100 (2010) 1 (2012) 324 1 2 5 10 21 206 302 989 3260
2019-10-10 21:30 7.57 205 4100 (2010) 1 (2012) 324 1 2 5 10 21 206 302 989 3260
2019-10-10 20:30 7.11 90 4100 (2010) 1 (2012) 324 1 2 5 10 21 206 302 989 3260
2019-10-10 19:30 7.04 77 4100 (2010) 1 (2012) 324 1 2 5 10 21 206 302 989 3260
2019-10-10 18:30 7.04 77 4100 (2010) 1 (2012) 324 1 2 5 10 21 206 302 989 3260
2019-10-10 17:30 7.05 79 4100 (2010) 1 (2012) 324 1 2 5 10 21 206 302 989 3260
2019-10-10 16:30 7.05 79 4100 (2010) 1 (2012) 324 1 2 5 10 21 206 302 989 3260
2019-10-10 15:30 7.06 81 4100 (2010) 1 (2012) 324 1 2 5 10 21 206 302 989 3260
2019-10-10 14:30 7.06 81 4100 (2010) 1 (2012) 324 1 2 5 10 21 206 302 989 3260
2019-10-10 13:30 7.07 75 4100 (2010) 1 (2012) 324 1 2 5 10 21 206 302 989 3260
2019-10-10 12:30 7.07 75 4100 (2010) 1 (2012) 324 1 2 5 10 21 206 302 989 3260
2019-10-10 11:30 7.08 76 4100 (2010) 1 (2012) 324 1 2 5 10 21 206 302 989 3260
2019-10-10 10:30 7.08 76 4100 (2010) 1 (2012) 324 1 2 5 10 21 206 302 989 3260
2019-10-10 09:30 7.09 78 4100 (2010) 1 (2012) 324 1 2 5 10 21 206 302 989 3260
2019-10-10 08:30 7.10 79 4100 (2010) 1 (2012) 324 1 2 5 10 21 206 302 989 3260
2019-10-10 07:30 7.10 79 4100 (2010) 1 (2012) 324 1 2 5 10 21 206 302 989 3260
2019-10-10 06:30 7.11 81 4100 (2010) 1 (2012) 324 1 2 5 10 21 206 302 989 3260
2019-10-10 05:30 7.12 83 4100 (2010) 1 (2012) 324 1 2 5 10 21 206 302 989 3260
2019-10-10 04:30 7.12 83 4100 (2010) 1 (2012) 324 1 2 5 10 21 206 302 989 3260
2019-10-10 03:30 7.13 85 4100 (2010) 1 (2012) 324 1 2 5 10 21 206 302 989 3260
2019-10-10 02:30 7.14 86 4100 (2010) 1 (2012) 324 1 2 5 10 21 206 302 989 3260
2019-10-10 01:30 7.14 86 4100 (2010) 1 (2012) 324 1 2 5 10 21 206 302 989 3260
2019-10-10 00:30 7.15 88 4100 (2010) 1 (2012) 324 1 2 5 10 21 206 302 989 3260
2019-10-09 23:30 7.15 88 7660 (2010) 1 (2012) 459 1 1 5 10 20 292 379 1100 5090
2019-10-09 22:30 7.16 90 7660 (2010) 1 (2012) 459 1 1 5 10 20 292 379 1100 5090
2019-10-09 21:30 7.16 90 7660 (2010) 1 (2012) 459 1 1 5 10 20 292 379 1100 5090
2019-10-09 20:30 7.17 92 7660 (2010) 1 (2012) 459 1 1 5 10 20 292 379 1100 5090
2019-10-09 19:30 7.17 92 7660 (2010) 1 (2012) 459 1 1 5 10 20 292 379 1100 5090
2019-10-09 18:30 7.18 94 7660 (2010) 1 (2012) 459 1 1 5 10 20 292 379 1100 5090
2019-10-09 17:30 7.19 96 7660 (2010) 1 (2012) 459 1 1 5 10 20 292 379 1100 5090
2019-10-09 16:30 7.20 98 7660 (2010) 1 (2012) 459 1 1 5 10 20 292 379 1100 5090
2019-10-09 15:30 7.21 100 7660 (2010) 1 (2012) 459 1 1 5 10 20 292 379 1100 5090
2019-10-09 14:30 7.22 102 7660 (2010) 1 (2012) 459 1 1 5 10 20 292 379 1100 5090
2019-10-09 13:30 7.22 102 7660 (2010) 1 (2012) 459 1 1 5 10 20 292 379 1100 5090
2019-10-09 12:30 7.23 104 7660 (2010) 1 (2012) 459 1 1 5 10 20 292 379 1100 5090
2019-10-09 11:30 7.24 106 7660 (2010) 1 (2012) 459 1 1 5 10 20 292 379 1100 5090
2019-10-09 10:30 7.25 108 7660 (2010) 1 (2012) 459 1 1 5 10 20 292 379 1100 5090
2019-10-09 09:30 7.26 110 7660 (2010) 1 (2012) 459 1 1 5 10 20 292 379 1100 5090
2019-10-09 08:30 7.27 112 7660 (2010) 1 (2012) 459 1 1 5 10 20 292 379 1100 5090
2019-10-09 07:30 7.28 115 7660 (2010) 1 (2012) 459 1 1 5 10 20 292 379 1100 5090
2019-10-09 06:30 7.29 117 7660 (2010) 1 (2012) 459 1 1 5 10 20 292 379 1100 5090
2019-10-09 05:30 7.30 119 7660 (2010) 1 (2012) 459 1 1 5 10 20 292 379 1100 5090
2019-10-09 04:30 7.31 121 7660 (2010) 1 (2012) 459 1 1 5 10 20 292 379 1100 5090
2019-10-09 03:30 7.32 124 7660 (2010) 1 (2012) 459 1 1 5 10 20 292 379 1100 5090
2019-10-09 02:30 7.33 126 7660 (2010) 1 (2012) 459 1 1 5 10 20 292 379 1100 5090
2019-10-09 01:30 7.34 129 7660 (2010) 1 (2012) 459 1 1 5 10 20 292 379 1100 5090
2019-10-09 00:30 7.36 134 7660 (2010) 1 (2012) 459 1 1 5 10 20 292 379 1100 5090
2019-10-08 23:30 7.37 136 1810 (1999) 1 (2012) 178 1 2 5 6 17 92 129 698 1570
2019-10-08 22:30 7.38 139 1810 (1999) 1 (2012) 178 1 2 5 6 17 92 129 698 1570
2019-10-08 21:30 7.39 141 1810 (1999) 1 (2012) 178 1 2 5 6 17 92 129 698 1570
2019-10-08 20:30 7.40 144 1810 (1999) 1 (2012) 178 1 2 5 6 17 92 129 698 1570
2019-10-08 19:30 7.40 144 1810 (1999) 1 (2012) 178 1 2 5 6 17 92 129 698 1570
2019-10-08 18:30 7.42 149 1810 (1999) 1 (2012) 178 1 2 5 6 17 92 129 698 1570
2019-10-08 17:30 7.43 152 1810 (1999) 1 (2012) 178 1 2 5 6 17 92 129 698 1570
2019-10-08 16:30 7.45 158 1810 (1999) 1 (2012) 178 1 2 5 6 17 92 129 698 1570
2019-10-08 15:30 7.46 160 1810 (1999) 1 (2012) 178 1 2 5 6 17 92 129 698 1570
2019-10-08 14:30 7.47 163 1810 (1999) 1 (2012) 178 1 2 5 6 17 92 129 698 1570
2019-10-08 13:30 7.48 166 1810 (1999) 1 (2012) 178 1 2 5 6 17 92 129 698 1570
2019-10-08 12:30 7.49 169 1810 (1999) 1 (2012) 178 1 2 5 6 17 92 129 698 1570
2019-10-08 11:30 7.50 172 1810 (1999) 1 (2012) 178 1 2 5 6 17 92 129 698 1570
2019-10-08 10:30 7.51 174 1810 (1999) 1 (2012) 178 1 2 5 6 17 92 129 698 1570
2019-10-08 09:30 7.52 177 1810 (1999) 1 (2012) 178 1 2 5 6 17 92 129 698 1570
2019-10-08 08:30 7.53 180 1810 (1999) 1 (2012) 178 1 2 5 6 17 92 129 698 1570
2019-10-08 07:30 7.54 183 1810 (1999) 1 (2012) 178 1 2 5 6 17 92 129 698 1570
2019-10-08 06:30 7.55 186 1810 (1999) 1 (2012) 178 1 2 5 6 17 92 129 698 1570
2019-10-08 05:30 7.55 186 1810 (1999) 1 (2012) 178 1 2 5 6 17 92 129 698 1570
2019-10-08 04:30 7.56 189 1810 (1999) 1 (2012) 178 1 2 5 6 17 92 129 698 1570
2019-10-08 03:30 7.56 189 1810 (1999) 1 (2012) 178 1 2 5 6 17 92 129 698 1570
2019-10-08 02:30 7.57 192 1810 (1999) 1 (2012) 178 1 2 5 6 17 92 129 698 1570
2019-10-08 01:30 7.58 195 1810 (1999) 1 (2012) 178 1 2 5 6 17 92 129 698 1570
2019-10-08 00:30 7.59 198 1810 (1999) 1 (2012) 178 1 2 5 6 17 92 129 698 1570
2019-10-07 23:30 7.60 201 4530 (1999) 1 (2005) 315 1 1 4 5 18 75 86 1140 3750
2019-10-07 22:30 7.62 208 4530 (1999) 1 (2005) 315 1 1 4 5 18 75 86 1140 3750
2019-10-07 21:30 7.63 211 4530 (1999) 1 (2005) 315 1 1 4 5 18 75 86 1140 3750
2019-10-07 20:30 7.64 214 4530 (1999) 1 (2005) 315 1 1 4 5 18 75 86 1140 3750
2019-10-07 19:30 7.65 217 4530 (1999) 1 (2005) 315 1 1 4 5 18 75 86 1140 3750
2019-10-07 18:30 7.66 221 4530 (1999) 1 (2005) 315 1 1 4 5 18 75 86 1140 3750
2019-10-07 17:30 7.68 227 4530 (1999) 1 (2005) 315 1 1 4 5 18 75 86 1140 3750
2019-10-07 16:30 7.69 231 4530 (1999) 1 (2005) 315 1 1 4 5 18 75 86 1140 3750
2019-10-07 15:30 7.70 234 4530 (1999) 1 (2005) 315 1 1 4 5 18 75 86 1140 3750
2019-10-07 14:30 7.71 238 4530 (1999) 1 (2005) 315 1 1 4 5 18 75 86 1140 3750
2019-10-07 13:30 7.73 245 4530 (1999) 1 (2005) 315 1 1 4 5 18 75 86 1140 3750
2019-10-07 12:30 7.74 249 4530 (1999) 1 (2005) 315 1 1 4 5 18 75 86 1140 3750
2019-10-07 11:30 7.76 256 4530 (1999) 1 (2005) 315 1 1 4 5 18 75 86 1140 3750
2019-10-07 10:30 7.77 260 4530 (1999) 1 (2005) 315 1 1 4 5 18 75 86 1140 3750
2019-10-07 09:30 7.78 264 4530 (1999) 1 (2005) 315 1 1 4 5 18 75 86 1140 3750
2019-10-07 08:30 7.75 252 4530 (1999) 1 (2005) 315 1 1 4 5 18 75 86 1140 3750
2019-10-07 07:30 7.71 238 4530 (1999) 1 (2005) 315 1 1 4 5 18 75 86 1140 3750
2019-10-07 06:30 7.65 217 4530 (1999) 1 (2005) 315 1 1 4 5 18 75 86 1140 3750
2019-10-07 05:30 7.61 204 4530 (1999) 1 (2005) 315 1 1 4 5 18 75 86 1140 3750
2019-10-07 04:30 7.57 192 4530 (1999) 1 (2005) 315 1 1 4 5 18 75 86 1140 3750
2019-10-07 03:30 7.50 172 4530 (1999) 1 (2005) 315 1 1 4 5 18 75 86 1140 3750
2019-10-07 02:30 7.26 110 4530 (1999) 1 (2005) 315 1 1 4 5 18 75 86 1140 3750
2019-10-07 01:30 7.17 92 4530 (1999) 1 (2005) 315 1 1 4 5 18 75 86 1140 3750
2019-10-07 00:30 7.11 81 4530 (1999) 1 (2005) 315 1 1 4 5 18 75 86 1140 3750

A total of 171 rows are displayed for years 1992 through 2018.

Trips for Mountain Fork River (Oklahoma), Smithville (07338750)

DateStartEndDistanceConditionDischargeHeightFishingDetails
Click for details2007-05-27 Eagle Creek Bridge (Smithville) The Narrows Total trip distance: 6.2 miles6.2 Good 76 Fair SMB
GSF
SMB, GSF
Fillmore, Brian
Fillmore, Rebecca
Javorsek, Rachie
Durand
Fillmore, Brian; Fillmore, Rebecca; Javorsek, Rachie; Durand
No notes for this trip<i>No notes for this trip</i> USGS Gauge Data:
Smithville (07338750)
Discharge: 76
Height:
<b>USGS Gauge Data:</b></br />Smithville (07338750)<br />Discharge: 76<br />Height:
Source: FillmoreSource: Fillmore
Click for details2012-04-28 Eagle Creek Bridge (Smithville) The Narrows Total trip distance: 6.2 miles6.2 Good 64 6.93 Fair GSF
LSF
SMB
GSF, LSF, SMB
Fillmore, Brian
Fillmore, Rebecca
Fillmore, Brian; Fillmore, Rebecca
No notes for this trip<i>No notes for this trip</i> USGS Gauge Data:
Smithville (07338750)
Discharge: 64
Height: 6.93
<b>USGS Gauge Data:</b></br />Smithville (07338750)<br />Discharge: 64<br />Height: 6.93
Source: FillmoreSource: Fillmore
Click for details2008-07-26 Eagle Creek Bridge (Smithville) The Narrows Total trip distance: 6.2 miles6.2 Poor 6 6.00 Poor GSF
LSF
SMB
GSF, LSF, SMB
East, Mitch
Fillmore, Brian
Fillmore, Rebecca
East, Mitch; Fillmore, Brian; Fillmore, Rebecca
No notes for this trip<i>No notes for this trip</i> USGS Gauge Data:
Smithville (07338750)
Discharge: 6
Height: 6.00
<b>USGS Gauge Data:</b></br />Smithville (07338750)<br />Discharge: 6<br />Height: 6.00
Source: FillmoreSource: Fillmore

A total of 3 rows are displayed.

Trip Summary for Mountain Fork River (Oklahoma), Smithville (07338750)

Miles18.6
Trips3
People5
Dates3
Years3
Months3
Rows3
Sources1

Condition Descriptions

Fishing Conditions

Fish Species

Notes

Classic Trip List

The classic River Trips application is still available for use. It is updated with the new system using a data retrofit. It is no longer maintained. The original River Trips application is no longer updated (as of 1 Dec 2016) but can be checked for errors or for the condition of the data before it was converted to the new system.